createdAt,value
2023-03-26T00:02:09.181Z,40.88
2023-03-26T00:05:14.549Z,40.99
2023-03-26T00:08:19.645Z,41.02
2023-03-26T00:11:24.155Z,40.86
2023-03-26T00:14:26.820Z,41.25
2023-03-26T00:17:28.987Z,41.34
2023-03-26T00:20:35.071Z,41.31
2023-03-26T00:23:38.608Z,41.19
2023-03-26T00:26:41.180Z,41.43
2023-03-26T00:29:43.488Z,41.04
2023-03-26T00:32:45.927Z,41.53
2023-03-26T00:35:58.688Z,40.67
2023-03-26T00:39:06.154Z,40.98
2023-03-26T00:42:08.571Z,40.93
2023-03-26T00:45:11.188Z,40.55
2023-03-26T00:48:14.411Z,40.88
2023-03-26T00:51:18.322Z,40.81
2023-03-26T00:54:20.476Z,40.61
2023-03-26T00:57:34.684Z,40.74
2023-03-26T01:00:46.349Z,40.67
2023-03-26T01:04:06.792Z,40.66
2023-03-26T01:07:13.464Z,40.37
2023-03-26T01:10:15.704Z,40.40
2023-03-26T01:13:21.704Z,40.68
2023-03-26T01:16:45.103Z,40.18
2023-03-26T01:20:08.305Z,40.71
2023-03-26T01:23:10.895Z,40.47
2023-03-26T01:26:58.482Z,40.55
2023-03-26T01:30:17.827Z,40.45
2023-03-26T01:33:48.363Z,40.82
2023-03-26T01:37:37.827Z,40.98
2023-03-26T01:40:49.527Z,40.67
2023-03-26T01:44:00.276Z,40.71
2023-03-26T01:47:03.473Z,40.89
2023-03-26T01:50:06.339Z,41.26
2023-03-26T01:53:09.557Z,41.13
2023-03-26T01:56:18.809Z,41.06
2023-03-26T01:59:39.254Z,41.25
2023-03-26T02:02:59.614Z,41.31
2023-03-26T02:06:17.502Z,41.13
2023-03-26T02:09:26.736Z,41.49
2023-03-26T02:12:29.801Z,41.53
2023-03-26T02:15:32.912Z,41.45
2023-03-26T02:18:41.544Z,41.78
2023-03-26T02:21:43.680Z,41.34
2023-03-26T02:24:45.997Z,41.69
2023-03-26T02:27:52.209Z,41.38
2023-03-26T02:30:57.699Z,41.67
2023-03-26T02:34:00.288Z,41.46
2023-03-26T02:37:04.623Z,41.90
2023-03-26T02:40:11.215Z,41.78
2023-03-26T02:43:16.070Z,41.66
2023-03-26T02:46:19.267Z,41.97
2023-03-26T02:49:40.215Z,41.73
2023-03-26T02:52:43.397Z,41.67
2023-03-26T02:55:45.832Z,41.80
2023-03-26T02:58:48.923Z,41.29
2023-03-26T03:01:51.324Z,41.30
2023-03-26T03:05:01.384Z,40.95
2023-03-26T03:08:08.137Z,41.41
2023-03-26T03:11:15.466Z,41.88
2023-03-26T03:14:19.632Z,41.19
2023-03-26T03:17:21.777Z,41.43
2023-03-26T03:20:23.969Z,41.51
2023-03-26T03:23:26.493Z,41.81
2023-03-26T03:26:36.469Z,41.68
2023-03-26T03:29:56.673Z,41.47
2023-03-26T03:33:20.665Z,42.05
2023-03-26T03:36:27.530Z,41.71
2023-03-26T03:39:37.229Z,41.63
2023-03-26T03:42:39.514Z,41.57
2023-03-26T03:45:43.766Z,42.05
2023-03-26T03:48:56.026Z,41.53
2023-03-26T03:52:06.844Z,42.01
2023-03-26T03:55:15.221Z,41.89
2023-03-26T03:58:24.505Z,42.61
2023-03-26T04:01:30.757Z,42.14
2023-03-26T04:04:46.378Z,42.56
2023-03-26T04:07:51.183Z,42.43
2023-03-26T04:10:59.124Z,42.41
2023-03-26T04:14:21.506Z,42.44
2023-03-26T04:17:34.541Z,42.59
2023-03-26T04:20:38.500Z,42.81
2023-03-26T04:23:42.264Z,42.86
2023-03-26T04:27:01.046Z,42.64
2023-03-26T04:30:15.053Z,42.78
2023-03-26T04:33:17.470Z,42.49
2023-03-26T04:36:23.195Z,42.24
2023-03-26T04:39:29.139Z,42.13
2023-03-26T04:43:06.674Z,42.30
2023-03-26T04:46:33.373Z,42.08
2023-03-26T04:49:43.643Z,42.40
2023-03-26T04:52:49.792Z,42.45
2023-03-26T04:56:39.389Z,42.20
2023-03-26T04:59:47.628Z,42.16
2023-03-26T05:02:50.517Z,41.92
2023-03-26T05:05:53.992Z,41.61
2023-03-26T05:08:56.369Z,41.93
2023-03-26T05:12:18.450Z,41.95
2023-03-26T05:15:31.877Z,41.87
2023-03-26T05:19:00.177Z,41.44
2023-03-26T05:22:07.748Z,41.17
2023-03-26T05:25:14.175Z,41.46
2023-03-26T05:28:19.243Z,41.14
2023-03-26T05:31:28.169Z,40.80
2023-03-26T05:34:32.492Z,41.07
2023-03-26T05:37:38.902Z,40.31
2023-03-26T05:40:42.300Z,40.70
2023-03-26T05:43:49.660Z,40.82
2023-03-26T05:46:55.767Z,40.49
2023-03-26T05:50:01.582Z,40.81
2023-03-26T05:53:08.897Z,40.69
2023-03-26T05:56:17.107Z,40.71
2023-03-26T05:59:38.065Z,40.13
2023-03-26T06:03:16.573Z,39.81
2023-03-26T06:06:44.982Z,39.88
2023-03-26T06:09:47.414Z,39.22
2023-03-26T06:12:49.734Z,39.69
2023-03-26T06:15:52.522Z,39.09
2023-03-26T06:19:17.595Z,38.84
2023-03-26T06:22:45.303Z,39.19
2023-03-26T06:26:03.343Z,38.45
2023-03-26T06:29:37.455Z,38.72
2023-03-26T06:32:52.603Z,38.35
2023-03-26T06:35:59.563Z,38.42
2023-03-26T06:39:01.940Z,38.24
2023-03-26T06:42:10.988Z,37.78
2023-03-26T06:45:20.861Z,37.42
2023-03-26T06:48:42.153Z,37.15
2023-03-26T06:51:54.476Z,36.55
2023-03-26T06:55:22.883Z,36.66
2023-03-26T06:58:43.770Z,36.06
2023-03-26T07:02:04.544Z,36.11
2023-03-26T07:05:25.413Z,36.18
2023-03-26T07:09:05.365Z,36.05
2023-03-26T07:12:33.719Z,35.84
2023-03-26T07:15:54.281Z,36.26
2023-03-26T07:19:19.490Z,36.23
2023-03-26T07:22:23.822Z,35.90
2023-03-26T07:25:44.985Z,36.19
2023-03-26T07:29:19.274Z,35.75
2023-03-26T07:32:45.238Z,35.79
2023-03-26T07:36:31.001Z,35.45
2023-03-26T07:39:55.797Z,35.98
2023-03-26T07:43:30.629Z,36.17
2023-03-26T07:47:22.105Z,36.09
2023-03-26T07:50:54.474Z,36.54
2023-03-26T07:54:04.511Z,36.35
2023-03-26T07:57:39.692Z,36.62
2023-03-26T08:01:15.733Z,36.70
2023-03-26T08:04:36.203Z,35.88
2023-03-26T08:08:08.505Z,35.67
2023-03-26T08:11:44.444Z,35.45
2023-03-26T08:15:12.571Z,35.20
2023-03-26T08:18:27.149Z,35.23
2023-03-26T08:21:45.149Z,34.84
2023-03-26T08:25:20.241Z,34.76
2023-03-26T08:28:29.147Z,34.82
2023-03-26T08:31:44.949Z,34.26
2023-03-26T08:34:47.096Z,34.26
2023-03-26T08:37:49.564Z,33.98
2023-03-26T08:41:10.665Z,33.74
2023-03-26T08:44:37.926Z,33.96
2023-03-26T08:48:05.367Z,34.31
2023-03-26T08:51:24.665Z,34.29
2023-03-26T08:55:22.014Z,34.26
2023-03-26T08:58:53.977Z,34.44
2023-03-26T09:02:06.888Z,34.22
2023-03-26T09:05:28.909Z,34.75
2023-03-26T09:08:54.759Z,34.48
2023-03-26T09:12:45.075Z,34.50
2023-03-26T09:16:35.601Z,34.45
2023-03-26T09:20:16.140Z,34.51
2023-03-26T09:23:37.045Z,34.72
2023-03-26T09:26:45.782Z,34.61
2023-03-26T09:30:02.830Z,34.54
2023-03-26T09:33:11.711Z,34.33
2023-03-26T09:36:21.642Z,34.07
2023-03-26T09:39:53.241Z,33.82
2023-03-26T09:43:25.472Z,33.63
2023-03-26T09:46:32.561Z,33.25
2023-03-26T09:50:02.670Z,33.35
2023-03-26T09:53:38.534Z,33.37
2023-03-26T09:56:52.679Z,32.95
2023-03-26T10:00:07.021Z,32.64
2023-03-26T10:03:21.365Z,32.66
2023-03-26T10:06:34.722Z,32.52
2023-03-26T10:09:54.330Z,31.98
2023-03-26T10:13:19.043Z,32.20
2023-03-26T10:16:58.959Z,32.01
2023-03-26T10:20:19.858Z,31.83
2023-03-26T10:23:39.694Z,31.74
2023-03-26T10:27:09.309Z,31.78
2023-03-26T10:30:52.954Z,31.67
2023-03-26T10:34:37.563Z,31.82
2023-03-26T10:38:06.492Z,32.58
2023-03-26T10:41:27.246Z,33.32
2023-03-26T10:44:47.744Z,36.93
2023-03-26T10:48:16.844Z,40.52
2023-03-26T10:51:37.650Z,42.47
2023-03-26T10:54:56.678Z,43.02
2023-03-26T10:58:02.001Z,43.70
2023-03-26T11:01:35.315Z,45.16
2023-03-26T11:04:53.674Z,42.53
2023-03-26T11:08:09.040Z,42.02
2023-03-26T11:11:29.868Z,40.28
2023-03-26T11:14:37.944Z,40.26
2023-03-26T11:17:41.434Z,39.82
2023-03-26T11:20:52.916Z,39.26
2023-03-26T11:24:13.719Z,39.02
2023-03-26T11:27:40.625Z,39.53
2023-03-26T11:30:47.395Z,39.75
2023-03-26T11:33:57.263Z,39.72
2023-03-26T11:37:01.760Z,38.41
2023-03-26T11:40:11.576Z,37.93
2023-03-26T11:43:17.160Z,37.02
2023-03-26T11:46:22.397Z,36.85
2023-03-26T11:49:26.345Z,36.79
2023-03-26T11:52:28.571Z,36.86
2023-03-26T11:55:31.523Z,36.12
2023-03-26T11:58:33.955Z,35.55
2023-03-26T12:02:11.566Z,34.96
2023-03-26T12:05:22.417Z,34.32
2023-03-26T12:08:31.241Z,34.21
2023-03-26T12:11:35.633Z,33.88
2023-03-26T12:14:42.512Z,33.23
2023-03-26T12:17:46.391Z,33.00
2023-03-26T12:21:22.304Z,32.48
2023-03-26T12:24:29.541Z,32.25
2023-03-26T12:27:33.126Z,32.15
2023-03-26T12:30:37.966Z,32.10
2023-03-26T12:33:40.502Z,31.47
2023-03-26T12:36:49.509Z,31.32
2023-03-26T12:40:24.477Z,31.01
2023-03-26T12:44:55.973Z,31.34
2023-03-26T12:47:56.601Z,31.09
2023-03-26T12:50:45.716Z,31.09
2023-03-26T12:54:06.302Z,31.37
2023-03-26T12:57:20.508Z,30.67
2023-03-26T13:00:42.634Z,30.88
2023-03-26T13:04:12.546Z,30.70
2023-03-26T13:07:25.426Z,30.64
2023-03-26T13:10:41.458Z,30.43
2023-03-26T13:13:57.871Z,29.14
2023-03-26T13:17:18.695Z,28.33
2023-03-26T13:20:40.101Z,28.26
2023-03-26T13:23:58.305Z,28.86
2023-03-26T13:27:03.371Z,28.58
2023-03-26T13:30:17.130Z,28.03
2023-03-26T13:33:22.476Z,27.90
2023-03-26T13:36:49.373Z,27.72
2023-03-26T13:40:07.276Z,27.34
2023-03-26T13:43:33.999Z,27.59
2023-03-26T13:47:13.544Z,27.77
2023-03-26T13:50:29.376Z,28.25
2023-03-26T13:53:44.957Z,28.34
2023-03-26T13:56:50.845Z,28.39
2023-03-26T14:00:18.290Z,27.74
2023-03-26T14:03:38.853Z,27.54
2023-03-26T14:07:05.521Z,27.49
2023-03-26T14:10:15.518Z,27.84
2023-03-26T14:13:36.394Z,27.98
2023-03-26T14:16:44.363Z,26.89
2023-03-26T14:20:06.302Z,27.00
2023-03-26T14:23:23.369Z,26.68
2023-03-26T14:26:50.558Z,26.43
2023-03-26T14:30:16.242Z,26.12
2023-03-26T14:33:34.048Z,26.53
2023-03-26T14:36:43.360Z,26.98
2023-03-26T14:40:14.649Z,26.29
2023-03-26T14:43:37.031Z,26.10
2023-03-26T14:46:54.791Z,25.89
2023-03-26T14:50:46.825Z,25.68
2023-03-26T14:53:52.569Z,25.48
2023-03-26T14:57:19.646Z,25.34
2023-03-26T15:00:43.451Z,24.85
2023-03-26T15:04:16.621Z,24.01
2023-03-26T15:07:41.411Z,23.93
2023-03-26T15:10:55.853Z,23.74
2023-03-26T15:14:18.383Z,24.17
2023-03-26T15:17:39.284Z,24.14
2023-03-26T15:21:04.219Z,24.50
2023-03-26T15:24:37.659Z,24.56
2023-03-26T15:28:17.535Z,24.67
2023-03-26T15:31:31.003Z,24.63
2023-03-26T15:35:13.266Z,24.70
2023-03-26T15:38:21.335Z,24.94
2023-03-26T15:41:26.673Z,24.74
2023-03-26T15:44:53.221Z,25.08
2023-03-26T15:48:02.122Z,25.92
2023-03-26T15:51:25.979Z,26.07
2023-03-26T15:54:46.746Z,26.15
2023-03-26T15:58:09.116Z,26.60
2023-03-26T16:01:34.505Z,26.55
2023-03-26T16:04:57.485Z,26.52
2023-03-26T16:08:15.001Z,26.64
2023-03-26T16:11:53.881Z,26.59
2023-03-26T16:15:25.744Z,26.42
2023-03-26T16:18:51.731Z,26.59
2023-03-26T16:22:06.038Z,26.26
2023-03-26T16:25:28.682Z,27.20
2023-03-26T16:28:34.855Z,27.51
2023-03-26T16:31:39.467Z,26.55
2023-03-26T16:35:08.569Z,27.13
2023-03-26T16:38:16.059Z,27.41
2023-03-26T16:41:21.984Z,27.00
2023-03-26T16:44:45.223Z,26.98
2023-03-26T16:47:53.432Z,27.03
2023-03-26T16:51:16.985Z,27.09
2023-03-26T16:54:24.939Z,28.08
2023-03-26T16:57:29.485Z,27.76
2023-03-26T17:00:36.173Z,27.69
2023-03-26T17:03:44.959Z,27.69
2023-03-26T17:07:08.563Z,28.71
2023-03-26T17:10:32.725Z,28.65
2023-03-26T17:13:40.354Z,29.14
2023-03-26T17:16:49.958Z,29.15
2023-03-26T17:20:11.664Z,29.54
2023-03-26T17:23:31.137Z,29.64
2023-03-26T17:26:47.692Z,29.53
2023-03-26T17:29:52.615Z,29.46
2023-03-26T17:33:05.828Z,30.08
2023-03-26T17:36:11.424Z,29.93
2023-03-26T17:39:39.672Z,30.09
2023-03-26T17:43:04.953Z,29.74
2023-03-26T17:46:22.493Z,29.94
2023-03-26T17:49:28.953Z,30.23
2023-03-26T17:52:48.398Z,30.61
2023-03-26T17:55:51.527Z,30.45
2023-03-26T17:58:58.676Z,30.57
2023-03-26T18:02:34.423Z,30.46
2023-03-26T18:05:39.044Z,30.28
2023-03-26T18:09:07.246Z,30.53
2023-03-26T18:12:34.646Z,30.81
2023-03-26T18:15:36.802Z,30.74
2023-03-26T18:18:59.646Z,30.80
2023-03-26T18:22:07.250Z,30.85
2023-03-26T18:25:21.433Z,30.95
2023-03-26T18:28:35.533Z,30.82
2023-03-26T18:31:44.007Z,31.10
2023-03-26T18:34:52.644Z,31.15
2023-03-26T18:37:59.969Z,31.00
2023-03-26T18:41:02.255Z,31.08
2023-03-26T18:44:17.937Z,31.37
2023-03-26T18:47:21.024Z,31.57
2023-03-26T18:50:26.754Z,31.63
2023-03-26T18:53:30.742Z,31.49
2023-03-26T18:56:39.451Z,31.67
2023-03-26T18:59:45.152Z,31.65
2023-03-26T19:02:49.804Z,31.72
2023-03-26T19:05:53.722Z,31.64
2023-03-26T19:08:56.945Z,31.61
2023-03-26T19:12:06.752Z,31.92
2023-03-26T19:18:33.662Z,31.87
2023-03-26T19:21:36.420Z,32.03
2023-03-26T19:24:40.568Z,32.10
2023-03-26T19:27:43.108Z,32.37
2023-03-26T19:30:45.578Z,32.44
2023-03-26T19:33:56.061Z,32.35
2023-03-26T19:37:03.959Z,32.84
2023-03-26T19:40:17.531Z,32.98
2023-03-26T19:43:20.257Z,33.20
2023-03-26T19:46:23.073Z,33.01
2023-03-26T19:49:28.322Z,33.42
2023-03-26T19:52:36.642Z,33.27
2023-03-26T19:55:42.951Z,33.15
2023-03-26T19:58:45.177Z,33.27
2023-03-26T20:01:47.423Z,33.35
2023-03-26T20:04:49.605Z,33.49
2023-03-26T20:07:52.769Z,33.51
2023-03-26T20:10:56.693Z,33.47
2023-03-26T20:14:00.755Z,33.44
2023-03-26T20:17:03.074Z,33.41
2023-03-26T20:20:08.983Z,33.74
2023-03-26T20:23:14.376Z,33.39
2023-03-26T20:26:18.459Z,33.28
2023-03-26T20:29:20.618Z,33.37
2023-03-26T20:32:26.467Z,33.15
2023-03-26T20:35:36.211Z,32.97
2023-03-26T20:38:40.015Z,33.31
2023-03-26T20:41:46.313Z,32.99
2023-03-26T20:44:48.516Z,33.04
2023-03-26T20:47:53.675Z,33.11
2023-03-26T20:50:57.149Z,33.01
2023-03-26T20:54:00.531Z,33.19
2023-03-26T20:57:02.860Z,32.99
2023-03-26T21:00:24.148Z,33.29
2023-03-26T21:03:26.391Z,33.22
2023-03-26T21:06:31.690Z,33.31
2023-03-26T21:09:34.301Z,33.35
2023-03-26T21:13:00.381Z,33.50
2023-03-26T21:16:03.260Z,33.49
2023-03-26T21:19:05.767Z,33.42
2023-03-26T21:22:13.685Z,33.67
2023-03-26T21:25:22.752Z,33.68
2023-03-26T21:28:39.385Z,33.62
2023-03-26T21:31:44.586Z,33.87
2023-03-26T21:34:57.511Z,33.77
2023-03-26T21:38:01.576Z,33.97
2023-03-26T21:41:04.617Z,34.16
2023-03-26T21:44:08.456Z,34.16
2023-03-26T21:47:11.292Z,36.45
2023-03-26T21:50:16.328Z,39.04
2023-03-26T21:53:18.715Z,39.11
2023-03-26T21:56:20.907Z,39.93
2023-03-26T21:59:45.668Z,40.23
2023-03-26T22:02:57.918Z,40.39
2023-03-26T22:06:07.057Z,41.12
2023-03-26T22:09:12.814Z,41.65
2023-03-26T22:12:15.086Z,42.66
2023-03-26T22:15:18.373Z,41.99
2023-03-26T22:18:25.884Z,42.71
2023-03-26T22:21:28.116Z,42.93
2023-03-26T22:24:30.224Z,42.83
2023-03-26T22:27:32.353Z,43.21
2023-03-26T22:30:46.572Z,44.13
2023-03-26T22:33:49.070Z,43.78
2023-03-26T22:36:52.060Z,44.70
2023-03-26T22:39:54.210Z,45.63
2023-03-26T22:42:56.562Z,45.82
2023-03-26T22:45:58.901Z,46.73
2023-03-26T22:49:03.798Z,46.41
2023-03-26T22:52:07.169Z,46.57
2023-03-26T22:55:11.036Z,47.00
2023-03-26T22:58:13.310Z,47.57
2023-03-26T23:01:18.409Z,47.20
2023-03-26T23:04:31.190Z,48.40
2023-03-26T23:07:34.037Z,48.00
2023-03-26T23:10:36.835Z,47.95
2023-03-26T23:13:43.077Z,48.89
2023-03-26T23:16:45.772Z,49.66
2023-03-26T23:19:47.970Z,49.85
2023-03-26T23:22:50.613Z,50.01
2023-03-26T23:25:54.397Z,50.41
2023-03-26T23:28:57.186Z,50.52
2023-03-26T23:32:00.026Z,50.67
2023-03-26T23:35:02.355Z,50.63
2023-03-26T23:38:06.780Z,50.52
2023-03-26T23:41:09.491Z,51.04
2023-03-26T23:44:14.375Z,50.50
2023-03-26T23:47:16.691Z,51.19
2023-03-26T23:50:18.891Z,51.31
2023-03-26T23:53:23.541Z,51.52
2023-03-26T23:56:27.826Z,51.91
2023-03-26T23:59:30.061Z,51.10
